sensor_id;sensor_type;location;lat;lon;timestamp;temperature;humidity
3360;DHT22;1693;49.602;11.046;2023-05-07T00:00:19;12.70;99.90
3360;DHT22;1693;49.602;11.046;2023-05-07T00:02:48;12.70;99.90
3360;DHT22;1693;49.602;11.046;2023-05-07T00:05:15;12.70;99.90
3360;DHT22;1693;49.602;11.046;2023-05-07T00:07:49;12.70;99.90
3360;DHT22;1693;49.602;11.046;2023-05-07T00:10:38;12.80;99.90
3360;DHT22;1693;49.602;11.046;2023-05-07T00:13:08;12.80;99.90
3360;DHT22;1693;49.602;11.046;2023-05-07T00:15:36;12.80;99.90
3360;DHT22;1693;49.602;11.046;2023-05-07T00:18:06;12.80;99.90
3360;DHT22;1693;49.602;11.046;2023-05-07T00:20:33;12.90;99.90
3360;DHT22;1693;49.602;11.046;2023-05-07T00:23:01;12.90;99.90
3360;DHT22;1693;49.602;11.046;2023-05-07T00:25:29;12.90;99.90
3360;DHT22;1693;49.602;11.046;2023-05-07T00:28:05;13.00;99.90
3360;DHT22;1693;49.602;11.046;2023-05-07T00:30:36;12.90;99.90
3360;DHT22;1693;49.602;11.046;2023-05-07T00:33:11;12.90;99.90
3360;DHT22;1693;49.602;11.046;2023-05-07T00:35:39;13.00;99.90
3360;DHT22;1693;49.602;11.046;2023-05-07T00:38:07;13.10;99.90
3360;DHT22;1693;49.602;11.046;2023-05-07T00:40:43;13.10;99.90
3360;DHT22;1693;49.602;11.046;2023-05-07T00:43:15;13.20;99.90
3360;DHT22;1693;49.602;11.046;2023-05-07T00:45:44;13.20;99.90
3360;DHT22;1693;49.602;11.046;2023-05-07T00:48:26;13.10;99.90
3360;DHT22;1693;49.602;11.046;2023-05-07T00:50:57;13.10;99.90
3360;DHT22;1693;49.602;11.046;2023-05-07T00:53:29;13.20;99.90
3360;DHT22;1693;49.602;11.046;2023-05-07T00:56:02;13.20;99.90
3360;DHT22;1693;49.602;11.046;2023-05-07T00:58:32;13.20;99.90
3360;DHT22;1693;49.602;11.046;2023-05-07T01:01:04;13.10;99.90
3360;DHT22;1693;49.602;11.046;2023-05-07T01:03:34;13.10;99.90
3360;DHT22;1693;49.602;11.046;2023-05-07T01:06:06;13.10;99.90
3360;DHT22;1693;49.602;11.046;2023-05-07T01:08:49;13.10;99.90
3360;DHT22;1693;49.602;11.046;2023-05-07T01:11:18;13.00;99.90
3360;DHT22;1693;49.602;11.046;2023-05-07T01:13:56;13.00;99.90
3360;DHT22;1693;49.602;11.046;2023-05-07T01:16:30;13.00;99.90
3360;DHT22;1693;49.602;11.046;2023-05-07T01:19:00;12.80;99.90
3360;DHT22;1693;49.602;11.046;2023-05-07T01:21:34;12.70;99.90
3360;DHT22;1693;49.602;11.046;2023-05-07T01:24:06;12.60;99.90
3360;DHT22;1693;49.602;11.046;2023-05-07T01:26:35;12.50;99.90
3360;DHT22;1693;49.602;11.046;2023-05-07T01:29:05;12.50;99.90
3360;DHT22;1693;49.602;11.046;2023-05-07T01:31:37;12.40;99.90
3360;DHT22;1693;49.602;11.046;2023-05-07T01:34:08;12.30;99.90
3360;DHT22;1693;49.602;11.046;2023-05-07T01:36:40;12.40;99.90
3360;DHT22;1693;49.602;11.046;2023-05-07T01:39:14;12.30;99.90
3360;DHT22;1693;49.602;11.046;2023-05-07T01:41:47;12.30;99.90
3360;DHT22;1693;49.602;11.046;2023-05-07T01:44:18;12.30;99.90
3360;DHT22;1693;49.602;11.046;2023-05-07T01:46:48;12.30;99.90
3360;DHT22;1693;49.602;11.046;2023-05-07T01:49:24;12.30;99.90
3360;DHT22;1693;49.602;11.046;2023-05-07T01:51:55;12.30;99.90
3360;DHT22;1693;49.602;11.046;2023-05-07T01:54:30;12.30;99.90
3360;DHT22;1693;49.602;11.046;2023-05-07T01:56:58;12.40;99.90
3360;DHT22;1693;49.602;11.046;2023-05-07T01:59:27;12.40;99.90
3360;DHT22;1693;49.602;11.046;2023-05-07T02:01:58;12.40;99.90
3360;DHT22;1693;49.602;11.046;2023-05-07T02:04:28;12.50;99.90
3360;DHT22;1693;49.602;11.046;2023-05-07T02:07:07;12.50;99.90
3360;DHT22;1693;49.602;11.046;2023-05-07T02:09:37;12.60;99.90
3360;DHT22;1693;49.602;11.046;2023-05-07T02:12:12;12.60;99.90
3360;DHT22;1693;49.602;11.046;2023-05-07T02:14:40;12.70;99.90
3360;DHT22;1693;49.602;11.046;2023-05-07T02:17:12;12.80;99.90
3360;DHT22;1693;49.602;11.046;2023-05-07T02:19:43;12.80;99.90
3360;DHT22;1693;49.602;11.046;2023-05-07T02:22:13;12.70;99.90
3360;DHT22;1693;49.602;11.046;2023-05-07T02:24:44;12.80;99.90
3360;DHT22;1693;49.602;11.046;2023-05-07T02:27:11;12.70;99.90
3360;DHT22;1693;49.602;11.046;2023-05-07T02:29:40;12.60;99.90
3360;DHT22;1693;49.602;11.046;2023-05-07T02:32:09;12.60;99.90
3360;DHT22;1693;49.602;11.046;2023-05-07T02:34:41;12.50;99.90
3360;DHT22;1693;49.602;11.046;2023-05-07T02:37:09;12.40;99.90
3360;DHT22;1693;49.602;11.046;2023-05-07T02:39:36;12.30;99.90
3360;DHT22;1693;49.602;11.046;2023-05-07T02:42:11;12.30;99.90
3360;DHT22;1693;49.602;11.046;2023-05-07T02:44:42;12.30;99.90
3360;DHT22;1693;49.602;11.046;2023-05-07T02:47:14;12.20;99.90
3360;DHT22;1693;49.602;11.046;2023-05-07T02:49:46;12.20;99.90
3360;DHT22;1693;49.602;11.046;2023-05-07T02:52:17;12.20;99.90
3360;DHT22;1693;49.602;11.046;2023-05-07T02:54:45;12.20;99.90
3360;DHT22;1693;49.602;11.046;2023-05-07T02:57:17;12.10;99.90
3360;DHT22;1693;49.602;11.046;2023-05-07T02:59:45;12.10;99.90
3360;DHT22;1693;49.602;11.046;2023-05-07T03:02:16;12.00;99.90
3360;DHT22;1693;49.602;11.046;2023-05-07T03:04:44;12.10;99.90
3360;DHT22;1693;49.602;11.046;2023-05-07T03:07:20;12.00;99.90
3360;DHT22;1693;49.602;11.046;2023-05-07T03:09:50;12.00;99.90
3360;DHT22;1693;49.602;11.046;2023-05-07T03:12:23;11.80;99.90
3360;DHT22;1693;49.602;11.046;2023-05-07T03:14:52;11.70;99.90
3360;DHT22;1693;49.602;11.046;2023-05-07T03:17:22;11.50;99.90
3360;DHT22;1693;49.602;11.046;2023-05-07T03:19:53;11.40;99.90
3360;DHT22;1693;49.602;11.046;2023-05-07T03:22:22;11.30;99.90
3360;DHT22;1693;49.602;11.046;2023-05-07T03:24:51;11.20;99.90
3360;DHT22;1693;49.602;11.046;2023-05-07T03:27:25;11.10;99.90
3360;DHT22;1693;49.602;11.046;2023-05-07T03:29:53;11.10;99.90
3360;DHT22;1693;49.602;11.046;2023-05-07T03:32:21;11.00;99.90
3360;DHT22;1693;49.602;11.046;2023-05-07T03:34:49;11.10;99.90
3360;DHT22;1693;49.602;11.046;2023-05-07T03:37:17;11.10;99.90
3360;DHT22;1693;49.602;11.046;2023-05-07T03:39:48;11.00;99.90
3360;DHT22;1693;49.602;11.046;2023-05-07T03:42:22;11.10;99.90
3360;DHT22;1693;49.602;11.046;2023-05-07T03:44:50;11.00;99.90
3360;DHT22;1693;49.602;11.046;2023-05-07T03:47:21;11.00;99.90
3360;DHT22;1693;49.602;11.046;2023-05-07T03:49:53;10.90;99.90
3360;DHT22;1693;49.602;11.046;2023-05-07T03:52:24;10.90;99.90
3360;DHT22;1693;49.602;11.046;2023-05-07T03:54:53;10.90;99.90
3360;DHT22;1693;49.602;11.046;2023-05-07T03:57:28;10.90;99.90
3360;DHT22;1693;49.602;11.046;2023-05-07T04:00:00;11.00;99.90
3360;DHT22;1693;49.602;11.046;2023-05-07T04:02:31;11.00;99.90
3360;DHT22;1693;49.602;11.046;2023-05-07T04:04:58;10.90;99.90
3360;DHT22;1693;49.602;11.046;2023-05-07T04:07:28;10.80;99.90
3360;DHT22;1693;49.602;11.046;2023-05-07T04:09:56;10.70;99.90
3360;DHT22;1693;49.602;11.046;2023-05-07T04:12:30;10.70;99.90
3360;DHT22;1693;49.602;11.046;2023-05-07T04:14:59;10.70;99.90
3360;DHT22;1693;49.602;11.046;2023-05-07T04:17:30;10.70;99.90
3360;DHT22;1693;49.602;11.046;2023-05-07T04:20:00;10.80;99.90
3360;DHT22;1693;49.602;11.046;2023-05-07T04:22:32;11.00;99.90
3360;DHT22;1693;49.602;11.046;2023-05-07T04:25:03;11.00;99.90
3360;DHT22;1693;49.602;11.046;2023-05-07T04:27:34;11.10;99.90
3360;DHT22;1693;49.602;11.046;2023-05-07T04:30:06;11.20;99.90
3360;DHT22;1693;49.602;11.046;2023-05-07T04:32:34;11.10;99.90
3360;DHT22;1693;49.602;11.046;2023-05-07T04:35:02;11.10;99.90
3360;DHT22;1693;49.602;11.046;2023-05-07T04:37:30;11.10;99.90
3360;DHT22;1693;49.602;11.046;2023-05-07T04:40:02;11.20;99.90
3360;DHT22;1693;49.602;11.046;2023-05-07T04:42:30;11.40;99.90
3360;DHT22;1693;49.602;11.046;2023-05-07T04:45:20;11.50;99.90
3360;DHT22;1693;49.602;11.046;2023-05-07T04:47:51;11.60;99.90
3360;DHT22;1693;49.602;11.046;2023-05-07T04:50:23;11.70;99.90
3360;DHT22;1693;49.602;11.046;2023-05-07T04:52:54;11.90;99.90
3360;DHT22;1693;49.602;11.046;2023-05-07T04:55:23;12.20;99.90
3360;DHT22;1693;49.602;11.046;2023-05-07T04:57:51;12.30;99.90
3360;DHT22;1693;49.602;11.046;2023-05-07T10:59:55;24.50;99.90
3360;DHT22;1693;49.602;11.046;2023-05-07T11:03:06;24.00;99.90
3360;DHT22;1693;49.602;11.046;2023-05-07T11:05:37;23.80;99.90
3360;DHT22;1693;49.602;11.046;2023-05-07T11:26:50;26.10;99.40
3360;DHT22;1693;49.602;11.046;2023-05-07T11:29:23;26.20;98.80
3360;DHT22;1693;49.602;11.046;2023-05-07T11:31:51;26.10;96.50
3360;DHT22;1693;49.602;11.046;2023-05-07T11:34:26;26.00;94.10
3360;DHT22;1693;49.602;11.046;2023-05-07T11:37:19;26.00;93.50
3360;DHT22;1693;49.602;11.046;2023-05-07T11:40:03;27.40;95.80
3360;DHT22;1693;49.602;11.046;2023-05-07T11:42:42;27.90;92.40
3360;DHT22;1693;49.602;11.046;2023-05-07T11:45:25;28.40;89.00
3360;DHT22;1693;49.602;11.046;2023-05-07T11:48:02;27.60;89.30
3360;DHT22;1693;49.602;11.046;2023-05-07T11:50:51;28.00;85.70
3360;DHT22;1693;49.602;11.046;2023-05-07T11:53:19;27.60;82.90
3360;DHT22;1693;49.602;11.046;2023-05-07T11:56:06;27.40;85.20
3360;DHT22;1693;49.602;11.046;2023-05-07T11:58:38;27.10;89.90
3360;DHT22;1693;49.602;11.046;2023-05-07T12:01:16;27.00;88.90
3360;DHT22;1693;49.602;11.046;2023-05-07T12:03:54;26.60;89.80
3360;DHT22;1693;49.602;11.046;2023-05-07T12:06:25;25.90;88.20
3360;DHT22;1693;49.602;11.046;2023-05-07T12:08:57;25.50;89.20
3360;DHT22;1693;49.602;11.046;2023-05-07T12:11:30;26.00;91.20
3360;DHT22;1693;49.602;11.046;2023-05-07T12:14:06;26.20;90.80
3360;DHT22;1693;49.602;11.046;2023-05-07T12:16:33;26.80;92.00
3360;DHT22;1693;49.602;11.046;2023-05-07T12:21:35;25.80;99.90
3360;DHT22;1693;49.602;11.046;2023-05-07T12:24:08;27.10;89.10
3360;DHT22;1693;49.602;11.046;2023-05-07T12:26:41;27.50;85.00
3360;DHT22;1693;49.602;11.046;2023-05-07T12:29:11;28.70;86.90
3360;DHT22;1693;49.602;11.046;2023-05-07T12:31:41;29.10;80.50
3360;DHT22;1693;49.602;11.046;2023-05-07T12:34:12;30.10;79.20
3360;DHT22;1693;49.602;11.046;2023-05-07T12:36:43;29.50;78.00
3360;DHT22;1693;49.602;11.046;2023-05-07T12:39:20;30.10;73.80
3360;DHT22;1693;49.602;11.046;2023-05-07T12:42:03;30.60;74.60
3360;DHT22;1693;49.602;11.046;2023-05-07T12:44:33;30.40;71.60
3360;DHT22;1693;49.602;11.046;2023-05-07T12:47:07;30.50;69.70
3360;DHT22;1693;49.602;11.046;2023-05-07T12:49:41;30.20;71.20
3360;DHT22;1693;49.602;11.046;2023-05-07T12:52:11;29.70;74.10
3360;DHT22;1693;49.602;11.046;2023-05-07T12:54:40;30.40;68.10
3360;DHT22;1693;49.602;11.046;2023-05-07T12:57:13;29.90;68.10
3360;DHT22;1693;49.602;11.046;2023-05-07T12:59:42;29.60;66.50
3360;DHT22;1693;49.602;11.046;2023-05-07T13:02:14;30.00;66.50
3360;DHT22;1693;49.602;11.046;2023-05-07T13:04:46;30.20;71.20
3360;DHT22;1693;49.602;11.046;2023-05-07T13:07:17;30.80;63.30
3360;DHT22;1693;49.602;11.046;2023-05-07T13:09:47;33.10;65.00
3360;DHT22;1693;49.602;11.046;2023-05-07T13:12:20;32.90;59.90
3360;DHT22;1693;49.602;11.046;2023-05-07T13:14:57;32.40;58.60
3360;DHT22;1693;49.602;11.046;2023-05-07T13:17:30;30.50;59.20
3360;DHT22;1693;49.602;11.046;2023-05-07T13:20:01;30.10;60.40
3360;DHT22;1693;49.602;11.046;2023-05-07T13:22:32;30.00;62.00
3360;DHT22;1693;49.602;11.046;2023-05-07T13:25:04;30.50;58.70
3360;DHT22;1693;49.602;11.046;2023-05-07T13:27:41;30.00;62.10
3360;DHT22;1693;49.602;11.046;2023-05-07T13:30:12;30.70;60.70
3360;DHT22;1693;49.602;11.046;2023-05-07T13:32:41;30.00;60.60
3360;DHT22;1693;49.602;11.046;2023-05-07T13:35:11;29.70;60.70
3360;DHT22;1693;49.602;11.046;2023-05-07T13:37:42;29.50;61.50
3360;DHT22;1693;49.602;11.046;2023-05-07T13:40:16;29.90;62.00
3360;DHT22;1693;49.602;11.046;2023-05-07T13:42:56;29.90;61.60
3360;DHT22;1693;49.602;11.046;2023-05-07T13:45:30;31.40;60.70
3360;DHT22;1693;49.602;11.046;2023-05-07T13:47:58;32.00;57.70
3360;DHT22;1693;49.602;11.046;2023-05-07T13:50:29;31.70;57.30
3360;DHT22;1693;49.602;11.046;2023-05-07T13:52:59;32.70;56.00
3360;DHT22;1693;49.602;11.046;2023-05-07T13:55:29;32.30;55.40
3360;DHT22;1693;49.602;11.046;2023-05-07T13:58:03;30.80;55.30
3360;DHT22;1693;49.602;11.046;2023-05-07T14:00:31;31.00;56.00
3360;DHT22;1693;49.602;11.046;2023-05-07T14:03:00;31.00;55.70
3360;DHT22;1693;49.602;11.046;2023-05-07T14:05:29;31.90;54.40
3360;DHT22;1693;49.602;11.046;2023-05-07T14:07:57;32.00;53.90
3360;DHT22;1693;49.602;11.046;2023-05-07T14:10:31;31.30;53.30
3360;DHT22;1693;49.602;11.046;2023-05-07T14:13:04;31.50;53.10
3360;DHT22;1693;49.602;11.046;2023-05-07T14:15:33;30.20;52.70
3360;DHT22;1693;49.602;11.046;2023-05-07T14:18:00;28.60;54.70
3360;DHT22;1693;49.602;11.046;2023-05-07T14:20:30;28.30;54.80
3360;DHT22;1693;49.602;11.046;2023-05-07T14:22:58;28.40;56.70
3360;DHT22;1693;49.602;11.046;2023-05-07T14:25:30;27.80;57.50
3360;DHT22;1693;49.602;11.046;2023-05-07T14:27:58;27.50;59.10
3360;DHT22;1693;49.602;11.046;2023-05-07T14:30:35;28.40;59.70
3360;DHT22;1693;49.602;11.046;2023-05-07T14:33:05;29.10;59.60
3360;DHT22;1693;49.602;11.046;2023-05-07T14:35:45;30.40;59.60
3360;DHT22;1693;49.602;11.046;2023-05-07T14:38:14;28.70;54.80
3360;DHT22;1693;49.602;11.046;2023-05-07T14:40:45;28.30;55.50
3360;DHT22;1693;49.602;11.046;2023-05-07T14:43:12;27.50;56.40
3360;DHT22;1693;49.602;11.046;2023-05-07T14:45:52;27.00;58.10
3360;DHT22;1693;49.602;11.046;2023-05-07T14:48:21;26.50;59.40
3360;DHT22;1693;49.602;11.046;2023-05-07T14:50:51;26.70;58.80
3360;DHT22;1693;49.602;11.046;2023-05-07T14:53:23;27.30;61.80
3360;DHT22;1693;49.602;11.046;2023-05-07T14:55:54;26.90;58.80
3360;DHT22;1693;49.602;11.046;2023-05-07T14:58:26;27.00;59.10
3360;DHT22;1693;49.602;11.046;2023-05-07T15:01:02;26.90;58.30
3360;DHT22;1693;49.602;11.046;2023-05-07T15:03:32;27.50;58.30
3360;DHT22;1693;49.602;11.046;2023-05-07T15:06:03;26.40;60.00
3360;DHT22;1693;49.602;11.046;2023-05-07T15:11:09;25.90;65.20
3360;DHT22;1693;49.602;11.046;2023-05-07T15:13:42;25.90;65.80
3360;DHT22;1693;49.602;11.046;2023-05-07T15:16:19;25.30;59.50
3360;DHT22;1693;49.602;11.046;2023-05-07T15:18:49;25.00;61.50
3360;DHT22;1693;49.602;11.046;2023-05-07T15:21:21;25.50;67.00
3360;DHT22;1693;49.602;11.046;2023-05-07T15:24:04;26.00;62.90
3360;DHT22;1693;49.602;11.046;2023-05-07T15:26:38;26.40;64.90
3360;DHT22;1693;49.602;11.046;2023-05-07T15:29:09;26.80;58.10
3360;DHT22;1693;49.602;11.046;2023-05-07T15:31:51;26.10;59.40
3360;DHT22;1693;49.602;11.046;2023-05-07T15:34:23;25.40;60.70
3360;DHT22;1693;49.602;11.046;2023-05-07T15:36:55;25.10;63.40
3360;DHT22;1693;49.602;11.046;2023-05-07T15:39:34;24.90;62.80
3360;DHT22;1693;49.602;11.046;2023-05-07T15:42:34;25.00;67.20
3360;DHT22;1693;49.602;11.046;2023-05-07T15:45:08;24.50;92.50
3360;DHT22;1693;49.602;11.046;2023-05-07T15:47:42;24.40;92.00
3360;DHT22;1693;49.602;11.046;2023-05-07T15:50:13;24.40;81.00
3360;DHT22;1693;49.602;11.046;2023-05-07T15:52:42;24.30;90.70
3360;DHT22;1693;49.602;11.046;2023-05-07T15:55:13;24.20;91.80
3360;DHT22;1693;49.602;11.046;2023-05-07T18:40:18;18.60;99.90
3360;DHT22;1693;49.602;11.046;2023-05-07T18:42:49;18.40;99.90
3360;DHT22;1693;49.602;11.046;2023-05-07T18:45:17;18.30;99.90
3360;DHT22;1693;49.602;11.046;2023-05-07T18:47:47;18.20;99.90
3360;DHT22;1693;49.602;11.046;2023-05-07T18:50:23;18.10;99.90
3360;DHT22;1693;49.602;11.046;2023-05-07T18:52:55;18.10;99.90
3360;DHT22;1693;49.602;11.046;2023-05-07T18:55:25;18.00;99.90
3360;DHT22;1693;49.602;11.046;2023-05-07T18:57:59;17.90;99.90
3360;DHT22;1693;49.602;11.046;2023-05-07T19:00:27;17.90;99.90
3360;DHT22;1693;49.602;11.046;2023-05-07T19:02:59;17.80;99.90
3360;DHT22;1693;49.602;11.046;2023-05-07T19:05:32;17.80;99.90
3360;DHT22;1693;49.602;11.046;2023-05-07T19:08:00;17.70;99.90
3360;DHT22;1693;49.602;11.046;2023-05-07T19:10:31;17.60;99.90
3360;DHT22;1693;49.602;11.046;2023-05-07T19:13:00;17.50;99.90
3360;DHT22;1693;49.602;11.046;2023-05-07T19:15:28;17.50;99.90
3360;DHT22;1693;49.602;11.046;2023-05-07T19:17:59;17.50;99.90
3360;DHT22;1693;49.602;11.046;2023-05-07T19:20:34;17.40;99.90
3360;DHT22;1693;49.602;11.046;2023-05-07T19:23:02;17.40;99.90
3360;DHT22;1693;49.602;11.046;2023-05-07T19:25:32;17.30;99.90
3360;DHT22;1693;49.602;11.046;2023-05-07T19:28:01;17.30;99.90
3360;DHT22;1693;49.602;11.046;2023-05-07T19:30:33;17.30;99.90
3360;DHT22;1693;49.602;11.046;2023-05-07T19:33:04;17.10;99.90
3360;DHT22;1693;49.602;11.046;2023-05-07T19:35:42;17.00;99.90
3360;DHT22;1693;49.602;11.046;2023-05-07T19:38:13;17.00;99.90
3360;DHT22;1693;49.602;11.046;2023-05-07T19:50:50;16.60;99.90
3360;DHT22;1693;49.602;11.046;2023-05-07T19:53:18;16.60;99.90
3360;DHT22;1693;49.602;11.046;2023-05-07T19:56:02;16.60;99.90
3360;DHT22;1693;49.602;11.046;2023-05-07T19:58:38;16.50;99.90
3360;DHT22;1693;49.602;11.046;2023-05-07T20:01:06;16.40;99.90
3360;DHT22;1693;49.602;11.046;2023-05-07T20:03:37;16.40;99.90
3360;DHT22;1693;49.602;11.046;2023-05-07T20:06:13;16.40;99.90
3360;DHT22;1693;49.602;11.046;2023-05-07T20:08:46;16.30;99.90
3360;DHT22;1693;49.602;11.046;2023-05-07T20:11:17;16.30;99.90
3360;DHT22;1693;49.602;11.046;2023-05-07T20:13:46;16.20;99.90
3360;DHT22;1693;49.602;11.046;2023-05-07T20:16:14;16.10;99.90
3360;DHT22;1693;49.602;11.046;2023-05-07T20:18:44;16.10;99.90
3360;DHT22;1693;49.602;11.046;2023-05-07T20:21:18;16.00;99.90
3360;DHT22;1693;49.602;11.046;2023-05-07T20:23:46;16.00;99.90
3360;DHT22;1693;49.602;11.046;2023-05-07T20:26:15;15.90;99.90
3360;DHT22;1693;49.602;11.046;2023-05-07T20:28:50;15.80;99.90
3360;DHT22;1693;49.602;11.046;2023-05-07T20:31:17;15.80;99.90
3360;DHT22;1693;49.602;11.046;2023-05-07T20:33:46;15.80;99.90
3360;DHT22;1693;49.602;11.046;2023-05-07T20:36:20;15.70;99.90
3360;DHT22;1693;49.602;11.046;2023-05-07T20:38:51;15.70;99.90
3360;DHT22;1693;49.602;11.046;2023-05-07T20:41:22;15.70;99.90
3360;DHT22;1693;49.602;11.046;2023-05-07T20:43:51;15.70;99.90
3360;DHT22;1693;49.602;11.046;2023-05-07T20:46:24;15.60;99.90
3360;DHT22;1693;49.602;11.046;2023-05-07T20:49:00;15.50;99.90
3360;DHT22;1693;49.602;11.046;2023-05-07T20:51:36;15.50;99.90
3360;DHT22;1693;49.602;11.046;2023-05-07T20:54:16;15.40;99.90
3360;DHT22;1693;49.602;11.046;2023-05-07T20:56:48;15.40;99.90
3360;DHT22;1693;49.602;11.046;2023-05-07T20:59:19;15.30;99.90
3360;DHT22;1693;49.602;11.046;2023-05-07T21:01:52;15.20;99.90
3360;DHT22;1693;49.602;11.046;2023-05-07T21:04:24;15.20;99.90
3360;DHT22;1693;49.602;11.046;2023-05-07T21:07:02;15.20;99.90
3360;DHT22;1693;49.602;11.046;2023-05-07T21:09:32;15.10;99.90
3360;DHT22;1693;49.602;11.046;2023-05-07T21:12:03;15.00;99.90
3360;DHT22;1693;49.602;11.046;2023-05-07T21:14:35;15.00;99.90
3360;DHT22;1693;49.602;11.046;2023-05-07T21:17:05;14.90;99.90
3360;DHT22;1693;49.602;11.046;2023-05-07T21:19:36;14.90;99.90
3360;DHT22;1693;49.602;11.046;2023-05-07T21:22:15;14.80;99.90
3360;DHT22;1693;49.602;11.046;2023-05-07T21:24:45;14.70;99.90
3360;DHT22;1693;49.602;11.046;2023-05-07T23:01:17;13.40;99.90
3360;DHT22;1693;49.602;11.046;2023-05-07T23:03:45;13.40;99.90
3360;DHT22;1693;49.602;11.046;2023-05-07T23:06:17;13.30;99.90
3360;DHT22;1693;49.602;11.046;2023-05-07T23:08:55;13.20;99.90
3360;DHT22;1693;49.602;11.046;2023-05-07T23:11:27;13.20;99.90
3360;DHT22;1693;49.602;11.046;2023-05-07T23:13:57;13.10;99.90
3360;DHT22;1693;49.602;11.046;2023-05-07T23:16:28;13.10;99.90
3360;DHT22;1693;49.602;11.046;2023-05-07T23:18:57;13.10;99.90
3360;DHT22;1693;49.602;11.046;2023-05-07T23:21:27;13.10;99.90
3360;DHT22;1693;49.602;11.046;2023-05-07T23:24:09;13.10;99.90
3360;DHT22;1693;49.602;11.046;2023-05-07T23:26:36;13.10;99.90
3360;DHT22;1693;49.602;11.046;2023-05-07T23:29:04;13.00;99.90
3360;DHT22;1693;49.602;11.046;2023-05-07T23:31:35;13.00;99.90
3360;DHT22;1693;49.602;11.046;2023-05-07T23:34:07;12.90;99.90
3360;DHT22;1693;49.602;11.046;2023-05-07T23:36:40;13.00;99.90
3360;DHT22;1693;49.602;11.046;2023-05-07T23:39:14;13.00;99.90
3360;DHT22;1693;49.602;11.046;2023-05-07T23:41:45;13.00;99.90
3360;DHT22;1693;49.602;11.046;2023-05-07T23:44:15;13.00;99.90
3360;DHT22;1693;49.602;11.046;2023-05-07T23:46:46;12.90;99.90
3360;DHT22;1693;49.602;11.046;2023-05-07T23:49:16;12.80;99.90
3360;DHT22;1693;49.602;11.046;2023-05-07T23:51:46;12.70;99.90
3360;DHT22;1693;49.602;11.046;2023-05-07T23:54:17;12.70;99.90
3360;DHT22;1693;49.602;11.046;2023-05-07T23:56:44;12.60;99.90
3360;DHT22;1693;49.602;11.046;2023-05-07T23:59:15;12.60;99.90
